<?xml version="1.0" encoding="UTF-8" standalone="no" ?>
<gpx xmlns="http://www.topografix.com/GPX/1/1" xmlns:xsi="http://www.w3.org/2001/XMLSchema-instance" xsi:schemaLocation="http://www.topografix.com/GPX/1/1 http://www.topografix.com/GPX/1/1/gpx.xsd" version="1.1" creator="VisuGPX - https://www.visugpx.com">
  <metadata>
    <name>Saint Laurent de Vaux g2</name>
  </metadata>
  <wpt lat="45.70547" lon="4.66272">
    <ele>415.4</ele>
    <name><![CDATA[Hameau des Basses Bruyères ]]></name>
  </wpt>
  <wpt lat="45.70679" lon="4.6567">
    <ele>458</ele>
    <name><![CDATA[Chemin du Piragoy]]></name>
  </wpt>
  <wpt lat="45.71014" lon="4.65422">
    <ele>526.3</ele>
    <name><![CDATA[Belvédère de Piragoy]]></name>
  </wpt>
  <wpt lat="45.71058" lon="4.65437">
    <ele>527.6</ele>
    <name><![CDATA[Belvédère du Paragoy]]></name>
  </wpt>
  <wpt lat="45.71658" lon="4.66203">
    <ele>437.6</ele>
    <name><![CDATA[Croisement chemin des Granges]]></name>
  </wpt>
  <wpt lat="45.7134" lon="4.66568">
    <ele>417.2</ele>
    <name><![CDATA[Château de Monthus]]></name>
  </wpt>
  <wpt lat="45.70544" lon="4.66272">
    <ele>415.2</ele>
    <name><![CDATA[ Hameau des Basses Bruyères]]></name>
  </wpt>
  <trk>
    <name><![CDATA[Saint Laurent de Vaux g1]]></name>
    <extensions>
      <line xmlns="http://www.topografix.com/GPX/gpx_style/0/2">
        <color>0000FF</color>
        <width>4</width>
      </line>
    </extensions>
    <trkseg>
      <trkpt lat="45.70544" lon="4.66272">
        <ele>414</ele>
        <time>2019-12-15T12:32:10+01:00</time>
      </trkpt>
      <trkpt lat="45.7056" lon="4.66248">
        <ele>416</ele>
        <time>2019-12-15T12:31:53+01:00</time>
      </trkpt>
      <trkpt lat="45.70578" lon="4.66227">
        <ele>417</ele>
        <time>2019-12-15T12:31:34+01:00</time>
      </trkpt>
      <trkpt lat="45.70601" lon="4.6623">
        <ele>417</ele>
        <time>2019-12-15T12:31:11+01:00</time>
      </trkpt>
      <trkpt lat="45.70622" lon="4.66241">
        <ele>417</ele>
        <time>2019-12-15T12:30:41+01:00</time>
      </trkpt>
      <trkpt lat="45.70646" lon="4.66245">
        <ele>416</ele>
        <time>2019-12-15T12:30:10+01:00</time>
      </trkpt>
      <trkpt lat="45.70669" lon="4.66247">
        <ele>415</ele>
        <time>2019-12-15T12:29:52+01:00</time>
      </trkpt>
      <trkpt lat="45.70686" lon="4.66226">
        <ele>417</ele>
        <time>2019-12-15T12:29:33+01:00</time>
      </trkpt>
      <trkpt lat="45.70702" lon="4.66212">
        <ele>418</ele>
        <time>2019-12-15T12:29:08+01:00</time>
      </trkpt>
      <trkpt lat="45.70716" lon="4.66232">
        <ele>416</ele>
        <time>2020-01-17T09:29:17+01:00</time>
      </trkpt>
      <trkpt lat="45.70721" lon="4.66253">
        <ele>415</ele>
        <time>2020-01-17T09:29:12+01:00</time>
      </trkpt>
      <trkpt lat="45.70717" lon="4.66276">
        <ele>413</ele>
        <time>2020-01-17T09:29:07+01:00</time>
      </trkpt>
      <trkpt lat="45.70712" lon="4.66297">
        <ele>412</ele>
        <time>2020-01-17T09:29:02+01:00</time>
      </trkpt>
      <trkpt lat="45.70705" lon="4.66318">
        <ele>409</ele>
        <time>2020-01-17T09:28:57+01:00</time>
      </trkpt>
      <trkpt lat="45.70696" lon="4.66341">
        <ele>407</ele>
        <time>2020-01-17T09:28:52+01:00</time>
      </trkpt>
      <trkpt lat="45.70688" lon="4.66366">
        <ele>405</ele>
        <time>2019-12-15T12:25:58+01:00</time>
      </trkpt>
      <trkpt lat="45.70686" lon="4.66395">
        <ele>404</ele>
        <time>2019-12-15T12:20:27+01:00</time>
      </trkpt>
      <trkpt lat="45.70681" lon="4.66429">
        <ele>403</ele>
        <time>2019-12-15T12:20:01+01:00</time>
      </trkpt>
      <trkpt lat="45.70679" lon="4.66461">
        <ele>402</ele>
        <time>2019-12-15T12:18:15+01:00</time>
      </trkpt>
      <trkpt lat="45.70677" lon="4.66494">
        <ele>402</ele>
        <time>2019-12-15T12:17:56+01:00</time>
      </trkpt>
      <trkpt lat="45.70672" lon="4.66527">
        <ele>401</ele>
        <time>2019-12-15T12:17:38+01:00</time>
      </trkpt>
      <trkpt lat="45.70678" lon="4.6656">
        <ele>403</ele>
        <time>2019-12-15T12:17:19+01:00</time>
      </trkpt>
      <trkpt lat="45.70673" lon="4.66593">
        <ele>402</ele>
        <time>2019-12-15T12:16:50+01:00</time>
      </trkpt>
      <trkpt lat="45.7067" lon="4.66626">
        <ele>401</ele>
        <time>2019-12-15T12:16:27+01:00</time>
      </trkpt>
      <trkpt lat="45.70679" lon="4.66657">
        <ele>401</ele>
        <time>2019-12-15T12:16:06+01:00</time>
      </trkpt>
      <trkpt lat="45.70691" lon="4.66684">
        <ele>401</ele>
        <time>2019-12-15T12:15:47+01:00</time>
      </trkpt>
      <trkpt lat="45.70708" lon="4.66709">
        <ele>402</ele>
        <time>2019-12-15T12:15:28+01:00</time>
      </trkpt>
      <trkpt lat="45.70726" lon="4.66729">
        <ele>403</ele>
        <time>2019-12-15T12:15:03+01:00</time>
      </trkpt>
      <trkpt lat="45.70745" lon="4.66749">
        <ele>403</ele>
        <time>2019-12-15T12:14:46+01:00</time>
      </trkpt>
      <trkpt lat="45.70766" lon="4.66763">
        <ele>402</ele>
        <time>2019-12-15T12:14:27+01:00</time>
      </trkpt>
      <trkpt lat="45.70787" lon="4.66778">
        <ele>401</ele>
        <time>2019-12-15T12:14:02+01:00</time>
      </trkpt>
      <trkpt lat="45.70804" lon="4.66791">
        <ele>400</ele>
        <time>2020-01-17T09:27:27+01:00</time>
      </trkpt>
      <trkpt lat="45.70823" lon="4.66785">
        <ele>401</ele>
        <time>2020-01-17T09:27:22+01:00</time>
      </trkpt>
      <trkpt lat="45.70838" lon="4.66776">
        <ele>402</ele>
        <time>2020-01-17T09:27:17+01:00</time>
      </trkpt>
      <trkpt lat="45.70853" lon="4.66766">
        <ele>403</ele>
        <time>2020-01-17T09:27:12+01:00</time>
      </trkpt>
      <trkpt lat="45.70866" lon="4.66755">
        <ele>403</ele>
        <time>2020-01-17T09:27:07+01:00</time>
      </trkpt>
      <trkpt lat="45.70881" lon="4.66742">
        <ele>404</ele>
        <time>2019-12-15T12:12:40+01:00</time>
      </trkpt>
      <trkpt lat="45.70897" lon="4.66724">
        <ele>405</ele>
        <time>2019-12-15T12:12:19+01:00</time>
      </trkpt>
      <trkpt lat="45.70919" lon="4.66716">
        <ele>404</ele>
        <time>2019-12-15T12:12:04+01:00</time>
      </trkpt>
      <trkpt lat="45.70939" lon="4.667">
        <ele>405</ele>
        <time>2019-12-15T12:11:34+01:00</time>
      </trkpt>
      <trkpt lat="45.70961" lon="4.66689">
        <ele>405</ele>
        <time>2019-12-15T12:11:17+01:00</time>
      </trkpt>
      <trkpt lat="45.70981" lon="4.66673">
        <ele>406</ele>
        <time>2019-12-15T12:10:55+01:00</time>
      </trkpt>
      <trkpt lat="45.71003" lon="4.6666">
        <ele>407</ele>
        <time>2019-12-15T12:08:52+01:00</time>
      </trkpt>
      <trkpt lat="45.71025" lon="4.66665">
        <ele>407</ele>
        <time>2019-12-15T12:08:32+01:00</time>
      </trkpt>
      <trkpt lat="45.71045" lon="4.66649">
        <ele>410</ele>
        <time>2019-12-15T12:08:13+01:00</time>
      </trkpt>
      <trkpt lat="45.71068" lon="4.66648">
        <ele>411</ele>
        <time>2019-12-15T12:07:54+01:00</time>
      </trkpt>
      <trkpt lat="45.7109" lon="4.66649">
        <ele>412</ele>
        <time>2019-12-15T12:07:37+01:00</time>
      </trkpt>
      <trkpt lat="45.71113" lon="4.6665">
        <ele>413</ele>
        <time>2019-12-15T12:07:16+01:00</time>
      </trkpt>
      <trkpt lat="45.71136" lon="4.6665">
        <ele>414</ele>
        <time>2019-12-15T12:06:57+01:00</time>
      </trkpt>
      <trkpt lat="45.71159" lon="4.66641">
        <ele>415</ele>
        <time>2019-12-15T12:06:39+01:00</time>
      </trkpt>
      <trkpt lat="45.7118" lon="4.66629">
        <ele>416</ele>
        <time>2019-12-15T12:06:21+01:00</time>
      </trkpt>
      <trkpt lat="45.71202" lon="4.66616">
        <ele>417</ele>
        <time>2019-12-15T12:05:53+01:00</time>
      </trkpt>
      <trkpt lat="45.71223" lon="4.66603">
        <ele>418</ele>
        <time>2019-12-15T12:05:33+01:00</time>
      </trkpt>
      <trkpt lat="45.71245" lon="4.66591">
        <ele>418</ele>
        <time>2019-12-15T12:05:10+01:00</time>
      </trkpt>
      <trkpt lat="45.71267" lon="4.66582">
        <ele>419</ele>
        <time>2019-12-15T12:04:39+01:00</time>
      </trkpt>
      <trkpt lat="45.71288" lon="4.66578">
        <ele>420</ele>
        <time>2020-01-17T09:25:27+01:00</time>
      </trkpt>
      <trkpt lat="45.71295" lon="4.66574">
        <ele>421</ele>
        <time>2020-01-17T09:25:22+01:00</time>
      </trkpt>
      <trkpt lat="45.71316" lon="4.66572">
        <ele>421</ele>
        <time>2020-01-17T09:25:17+01:00</time>
      </trkpt>
      <trkpt lat="45.7134" lon="4.66568">
        <ele>422</ele>
        <time>2020-01-17T09:25:12+01:00</time>
      </trkpt>
      <trkpt lat="45.7137" lon="4.66559">
        <ele>422</ele>
        <time>2020-01-17T09:25:07+01:00</time>
      </trkpt>
      <trkpt lat="45.71397" lon="4.66544">
        <ele>423</ele>
        <time>2020-01-17T09:25:02+01:00</time>
      </trkpt>
      <trkpt lat="45.71418" lon="4.66527">
        <ele>423</ele>
        <time>2020-01-17T09:24:57+01:00</time>
      </trkpt>
      <trkpt lat="45.71445" lon="4.66516">
        <ele>422</ele>
        <time>2020-01-17T09:24:52+01:00</time>
      </trkpt>
      <trkpt lat="45.71469" lon="4.66503">
        <ele>422</ele>
        <time>2020-01-17T09:24:47+01:00</time>
      </trkpt>
      <trkpt lat="45.71495" lon="4.66482">
        <ele>424</ele>
        <time>2020-01-17T09:24:42+01:00</time>
      </trkpt>
      <trkpt lat="45.71517" lon="4.66462">
        <ele>425</ele>
        <time>2020-01-17T09:24:37+01:00</time>
      </trkpt>
      <trkpt lat="45.7154" lon="4.66441">
        <ele>427</ele>
        <time>2020-01-17T09:24:32+01:00</time>
      </trkpt>
      <trkpt lat="45.71564" lon="4.66415">
        <ele>428</ele>
        <time>2020-01-17T09:24:27+01:00</time>
      </trkpt>
      <trkpt lat="45.71582" lon="4.66381">
        <ele>431</ele>
        <time>2020-01-17T09:24:22+01:00</time>
      </trkpt>
      <trkpt lat="45.71601" lon="4.66353">
        <ele>433</ele>
        <time>2020-01-17T09:24:17+01:00</time>
      </trkpt>
      <trkpt lat="45.71616" lon="4.66327">
        <ele>435</ele>
        <time>2020-01-17T09:24:12+01:00</time>
      </trkpt>
      <trkpt lat="45.71631" lon="4.66293">
        <ele>436</ele>
        <time>2020-01-17T09:24:07+01:00</time>
      </trkpt>
      <trkpt lat="45.71646" lon="4.66265">
        <ele>437</ele>
        <time>2020-01-17T09:24:02+01:00</time>
      </trkpt>
      <trkpt lat="45.71652" lon="4.66233">
        <ele>438</ele>
        <time>2020-01-17T09:23:57+01:00</time>
      </trkpt>
      <trkpt lat="45.71658" lon="4.66203">
        <ele>438</ele>
        <time>2020-01-17T09:23:52+01:00</time>
      </trkpt>
      <trkpt lat="45.71643" lon="4.66177">
        <ele>441</ele>
        <time>2020-01-17T09:23:47+01:00</time>
      </trkpt>
      <trkpt lat="45.71626" lon="4.66153">
        <ele>442</ele>
        <time>2020-01-17T09:23:42+01:00</time>
      </trkpt>
      <trkpt lat="45.7161" lon="4.66123">
        <ele>444</ele>
        <time>2020-01-17T09:23:37+01:00</time>
      </trkpt>
      <trkpt lat="45.71595" lon="4.66098">
        <ele>446</ele>
        <time>2020-01-17T09:23:32+01:00</time>
      </trkpt>
      <trkpt lat="45.71579" lon="4.66072">
        <ele>449</ele>
        <time>2020-01-17T09:23:27+01:00</time>
      </trkpt>
      <trkpt lat="45.71558" lon="4.6605">
        <ele>453</ele>
        <time>2020-01-17T09:23:22+01:00</time>
      </trkpt>
      <trkpt lat="45.71535" lon="4.66031">
        <ele>456</ele>
        <time>2020-01-17T09:23:17+01:00</time>
      </trkpt>
      <trkpt lat="45.71514" lon="4.66012">
        <ele>459</ele>
        <time>2020-01-17T09:23:12+01:00</time>
      </trkpt>
      <trkpt lat="45.71495" lon="4.65993">
        <ele>462</ele>
        <time>2020-01-17T09:23:07+01:00</time>
      </trkpt>
      <trkpt lat="45.71474" lon="4.65973">
        <ele>466</ele>
        <time>2020-01-17T09:23:02+01:00</time>
      </trkpt>
      <trkpt lat="45.71451" lon="4.65952">
        <ele>470</ele>
        <time>2020-01-17T09:22:57+01:00</time>
      </trkpt>
      <trkpt lat="45.71427" lon="4.65939">
        <ele>475</ele>
        <time>2020-01-17T09:22:52+01:00</time>
      </trkpt>
      <trkpt lat="45.71405" lon="4.65922">
        <ele>479</ele>
        <time>2020-01-17T09:22:47+01:00</time>
      </trkpt>
      <trkpt lat="45.71382" lon="4.659">
        <ele>483</ele>
        <time>2020-01-17T09:22:42+01:00</time>
      </trkpt>
      <trkpt lat="45.71361" lon="4.65879">
        <ele>487</ele>
        <time>2020-01-17T09:22:37+01:00</time>
      </trkpt>
      <trkpt lat="45.71343" lon="4.65855">
        <ele>491</ele>
        <time>2020-01-17T09:22:32+01:00</time>
      </trkpt>
      <trkpt lat="45.71322" lon="4.65836">
        <ele>496</ele>
        <time>2020-01-17T09:22:27+01:00</time>
      </trkpt>
      <trkpt lat="45.71306" lon="4.65808">
        <ele>500</ele>
        <time>2020-01-17T09:22:22+01:00</time>
      </trkpt>
      <trkpt lat="45.71279" lon="4.65791">
        <ele>505</ele>
        <time>2020-01-17T09:22:17+01:00</time>
      </trkpt>
      <trkpt lat="45.71253" lon="4.65776">
        <ele>511</ele>
        <time>2020-01-17T09:22:12+01:00</time>
      </trkpt>
      <trkpt lat="45.71234" lon="4.65748">
        <ele>513</ele>
        <time>2020-01-17T09:22:07+01:00</time>
      </trkpt>
      <trkpt lat="45.71222" lon="4.65716">
        <ele>515</ele>
        <time>2020-01-17T09:22:02+01:00</time>
      </trkpt>
      <trkpt lat="45.71208" lon="4.65694">
        <ele>517</ele>
        <time>2020-01-17T09:21:57+01:00</time>
      </trkpt>
      <trkpt lat="45.71195" lon="4.65658">
        <ele>518</ele>
        <time>2020-01-17T09:21:52+01:00</time>
      </trkpt>
      <trkpt lat="45.71179" lon="4.65632">
        <ele>519</ele>
        <time>2019-12-15T11:45:51+01:00</time>
      </trkpt>
      <trkpt lat="45.71168" lon="4.65603">
        <ele>518</ele>
        <time>2019-12-15T11:45:17+01:00</time>
      </trkpt>
      <trkpt lat="45.7115" lon="4.65583">
        <ele>517</ele>
        <time>2019-12-15T11:44:56+01:00</time>
      </trkpt>
      <trkpt lat="45.71138" lon="4.65556">
        <ele>518</ele>
        <time>2019-12-15T11:44:36+01:00</time>
      </trkpt>
      <trkpt lat="45.71121" lon="4.65532">
        <ele>518</ele>
        <time>2019-12-15T11:44:17+01:00</time>
      </trkpt>
      <trkpt lat="45.71103" lon="4.65513">
        <ele>519</ele>
        <time>2019-12-15T11:43:58+01:00</time>
        <extensions>
          <visugpx:TrkExtension xmlns:visugpx="https://www.visugpx.com/editgpx/">
            <visugpx:node>1</visugpx:node>
            </visugpx:TrkExtension>
        </extensions>
      </trkpt>
      <trkpt lat="45.71096" lon="4.65488">
        <ele>522.6</ele>
      </trkpt>
      <trkpt lat="45.7109" lon="4.65479">
        <ele>523.5</ele>
      </trkpt>
      <trkpt lat="45.71082" lon="4.65468">
        <ele>524.5</ele>
      </trkpt>
      <trkpt lat="45.7107" lon="4.65447">
        <ele>526.7</ele>
      </trkpt>
      <trkpt lat="45.71058" lon="4.65417">
        <ele>529.1</ele>
      </trkpt>
      <trkpt lat="45.71048" lon="4.65421">
        <ele>528.4</ele>
      </trkpt>
      <trkpt lat="45.71045" lon="4.65422">
        <ele>528.2</ele>
      </trkpt>
      <trkpt lat="45.71035" lon="4.65421">
        <ele>527.8</ele>
      </trkpt>
      <trkpt lat="45.71013" lon="4.65414">
        <ele>527.2</ele>
      </trkpt>
      <trkpt lat="45.7102" lon="4.65395">
        <ele>529.6</ele>
      </trkpt>
      <trkpt lat="45.71023" lon="4.65361">
        <ele>532.3</ele>
      </trkpt>
      <trkpt lat="45.71025" lon="4.65355">
        <ele>533.2</ele>
      </trkpt>
      <trkpt lat="45.71029" lon="4.6534">
        <ele>535.3</ele>
      </trkpt>
      <trkpt lat="45.71035" lon="4.65328">
        <ele>536.7</ele>
      </trkpt>
      <trkpt lat="45.71039" lon="4.65309">
        <ele>538.5</ele>
      </trkpt>
      <trkpt lat="45.71042" lon="4.653">
        <ele>539.8</ele>
      </trkpt>
      <trkpt lat="45.71047" lon="4.65292">
        <ele>541.3</ele>
      </trkpt>
      <trkpt lat="45.71055" lon="4.65288">
        <ele>542.5</ele>
      </trkpt>
      <trkpt lat="45.71052" lon="4.65279">
        <ele>543.6</ele>
      </trkpt>
      <trkpt lat="45.71051" lon="4.65267">
        <ele>545.2</ele>
      </trkpt>
      <trkpt lat="45.71058" lon="4.65232">
        <ele>549.9</ele>
      </trkpt>
      <trkpt lat="45.71058" lon="4.65224">
        <ele>550.8</ele>
      </trkpt>
      <trkpt lat="45.71058" lon="4.65222">
        <ele>551</ele>
      </trkpt>
      <trkpt lat="45.71064" lon="4.65208">
        <ele>552.7</ele>
      </trkpt>
      <trkpt lat="45.71066" lon="4.652">
        <ele>553.7</ele>
      </trkpt>
      <trkpt lat="45.71067" lon="4.65195">
        <ele>554.3</ele>
      </trkpt>
      <trkpt lat="45.71069" lon="4.65184">
        <ele>555.6</ele>
      </trkpt>
      <trkpt lat="45.71071" lon="4.65177">
        <ele>556.4</ele>
      </trkpt>
      <trkpt lat="45.71075" lon="4.65153">
        <ele>559.3</ele>
      </trkpt>
      <trkpt lat="45.71079" lon="4.65127">
        <ele>561.9</ele>
      </trkpt>
      <trkpt lat="45.71082" lon="4.65107">
        <ele>563.4</ele>
      </trkpt>
      <trkpt lat="45.71089" lon="4.65069">
        <ele>565.8</ele>
      </trkpt>
      <trkpt lat="45.7109" lon="4.6505">
        <ele>567.2</ele>
      </trkpt>
      <trkpt lat="45.7109" lon="4.65034">
        <ele>568.3</ele>
      </trkpt>
      <trkpt lat="45.71094" lon="4.64984">
        <ele>570.6</ele>
      </trkpt>
      <trkpt lat="45.71094" lon="4.64965">
        <ele>570.5</ele>
      </trkpt>
      <trkpt lat="45.71091" lon="4.64946">
        <ele>570</ele>
      </trkpt>
      <trkpt lat="45.71088" lon="4.64927">
        <ele>569.3</ele>
      </trkpt>
      <trkpt lat="45.71086" lon="4.64915">
        <ele>568.8</ele>
      </trkpt>
      <trkpt lat="45.71085" lon="4.64909">
        <ele>568.4</ele>
      </trkpt>
      <trkpt lat="45.71082" lon="4.64898">
        <ele>567.6</ele>
      </trkpt>
      <trkpt lat="45.7108" lon="4.64881">
        <ele>566.1</ele>
      </trkpt>
      <trkpt lat="45.7108" lon="4.64879">
        <ele>565.9</ele>
      </trkpt>
      <trkpt lat="45.71079" lon="4.64864">
        <ele>564.3</ele>
      </trkpt>
      <trkpt lat="45.71076" lon="4.64845">
        <ele>562.8</ele>
      </trkpt>
      <trkpt lat="45.71074" lon="4.6483">
        <ele>561.8</ele>
      </trkpt>
      <trkpt lat="45.71069" lon="4.64804">
        <ele>560.4</ele>
      </trkpt>
      <trkpt lat="45.71066" lon="4.64789">
        <ele>559.4</ele>
      </trkpt>
      <trkpt lat="45.71061" lon="4.64769">
        <ele>557.9</ele>
      </trkpt>
      <trkpt lat="45.71057" lon="4.64754">
        <ele>556.4</ele>
      </trkpt>
      <trkpt lat="45.71053" lon="4.64739">
        <ele>554.9</ele>
      </trkpt>
      <trkpt lat="45.71048" lon="4.64724">
        <ele>553.2</ele>
      </trkpt>
      <trkpt lat="45.71044" lon="4.64714">
        <ele>552.1</ele>
      </trkpt>
      <trkpt lat="45.71041" lon="4.64706">
        <ele>551.3</ele>
      </trkpt>
      <trkpt lat="45.71037" lon="4.64695">
        <ele>550.4</ele>
      </trkpt>
      <trkpt lat="45.71033" lon="4.64686">
        <ele>550</ele>
      </trkpt>
      <trkpt lat="45.71028" lon="4.64676">
        <ele>549.7</ele>
      </trkpt>
      <trkpt lat="45.71031" lon="4.64666">
        <ele>548.7</ele>
      </trkpt>
      <trkpt lat="45.71042" lon="4.64615">
        <ele>544.7</ele>
      </trkpt>
      <trkpt lat="45.71044" lon="4.64597">
        <ele>543.7</ele>
      </trkpt>
      <trkpt lat="45.71055" lon="4.64567">
        <ele>539.7</ele>
      </trkpt>
      <trkpt lat="45.71056" lon="4.64545">
        <ele>536.8</ele>
      </trkpt>
      <trkpt lat="45.71053" lon="4.64524">
        <ele>535</ele>
      </trkpt>
      <trkpt lat="45.71053" lon="4.64509">
        <ele>533.4</ele>
      </trkpt>
      <trkpt lat="45.71054" lon="4.64497">
        <ele>532.4</ele>
      </trkpt>
      <trkpt lat="45.7106" lon="4.64481">
        <ele>532.1</ele>
      </trkpt>
      <trkpt lat="45.71069" lon="4.64469">
        <ele>531.9</ele>
      </trkpt>
      <trkpt lat="45.71081" lon="4.64459">
        <ele>533.1</ele>
      </trkpt>
      <trkpt lat="45.71094" lon="4.64445">
        <ele>535.3</ele>
      </trkpt>
      <trkpt lat="45.71134" lon="4.64425">
        <ele>535.7</ele>
      </trkpt>
      <trkpt lat="45.71162" lon="4.64414">
        <ele>536.6</ele>
      </trkpt>
      <trkpt lat="45.71166" lon="4.6441">
        <ele>537.2</ele>
      </trkpt>
      <trkpt lat="45.71169" lon="4.64402">
        <ele>538.5</ele>
      </trkpt>
      <trkpt lat="45.71172" lon="4.64389">
        <ele>540.6</ele>
      </trkpt>
      <trkpt lat="45.71205" lon="4.64326">
        <ele>538.6</ele>
      </trkpt>
      <trkpt lat="45.71216" lon="4.64307">
        <ele>537.1</ele>
      </trkpt>
      <trkpt lat="45.71224" lon="4.64293">
        <ele>536.1</ele>
      </trkpt>
      <trkpt lat="45.71241" lon="4.64255">
        <ele>532.4</ele>
      </trkpt>
      <trkpt lat="45.71259" lon="4.64207">
        <ele>527.2</ele>
      </trkpt>
      <trkpt lat="45.71265" lon="4.64187">
        <ele>525.3</ele>
      </trkpt>
      <trkpt lat="45.71268" lon="4.64177">
        <ele>523.8</ele>
      </trkpt>
      <trkpt lat="45.71276" lon="4.64129">
        <ele>518.2</ele>
      </trkpt>
      <trkpt lat="45.71278" lon="4.64111">
        <ele>516.9</ele>
      </trkpt>
      <trkpt lat="45.7128" lon="4.64077">
        <ele>513</ele>
      </trkpt>
      <trkpt lat="45.71279" lon="4.64046">
        <ele>510.3</ele>
      </trkpt>
      <trkpt lat="45.71275" lon="4.6401">
        <ele>507.8</ele>
      </trkpt>
      <trkpt lat="45.71274" lon="4.63983">
        <ele>506.3</ele>
      </trkpt>
      <trkpt lat="45.7127" lon="4.63952">
        <ele>504.7</ele>
      </trkpt>
      <trkpt lat="45.71266" lon="4.63925">
        <ele>501.7</ele>
      </trkpt>
      <trkpt lat="45.71257" lon="4.63885">
        <ele>500.2</ele>
      </trkpt>
      <trkpt lat="45.71256" lon="4.63868">
        <ele>499.3</ele>
      </trkpt>
      <trkpt lat="45.71257" lon="4.63847">
        <ele>498</ele>
      </trkpt>
      <trkpt lat="45.71257" lon="4.63825">
        <ele>497.2</ele>
      </trkpt>
      <trkpt lat="45.71259" lon="4.63807">
        <ele>495.8</ele>
      </trkpt>
      <trkpt lat="45.71268" lon="4.63762">
        <ele>492.5</ele>
      </trkpt>
      <trkpt lat="45.71269" lon="4.63745">
        <ele>493.3</ele>
      </trkpt>
      <trkpt lat="45.71272" lon="4.63727">
        <ele>493.7</ele>
      </trkpt>
      <trkpt lat="45.71275" lon="4.63712">
        <ele>494.9</ele>
      </trkpt>
      <trkpt lat="45.71281" lon="4.63695">
        <ele>495.7</ele>
      </trkpt>
      <trkpt lat="45.71291" lon="4.63681">
        <ele>495.6</ele>
        <extensions>
          <visugpx:TrkExtension xmlns:visugpx="https://www.visugpx.com/editgpx/">
            <visugpx:node>2</visugpx:node>
            </visugpx:TrkExtension>
        </extensions>
      </trkpt>
      <trkpt lat="45.71315" lon="4.63654">
        <ele>493.7</ele>
      </trkpt>
      <trkpt lat="45.71327" lon="4.63634">
        <ele>492.2</ele>
      </trkpt>
      <trkpt lat="45.71343" lon="4.63605">
        <ele>487.9</ele>
      </trkpt>
      <trkpt lat="45.71352" lon="4.63586">
        <ele>486.5</ele>
      </trkpt>
      <trkpt lat="45.71361" lon="4.6357">
        <ele>485.9</ele>
      </trkpt>
      <trkpt lat="45.7137" lon="4.63557">
        <ele>486</ele>
      </trkpt>
      <trkpt lat="45.7138" lon="4.63546">
        <ele>484.8</ele>
      </trkpt>
      <trkpt lat="45.71393" lon="4.63538">
        <ele>483</ele>
      </trkpt>
      <trkpt lat="45.71404" lon="4.63524">
        <ele>482.9</ele>
      </trkpt>
      <trkpt lat="45.71412" lon="4.63509">
        <ele>481.7</ele>
      </trkpt>
      <trkpt lat="45.71419" lon="4.63491">
        <ele>480.7</ele>
      </trkpt>
      <trkpt lat="45.71428" lon="4.63459">
        <ele>478.7</ele>
      </trkpt>
      <trkpt lat="45.71433" lon="4.63433">
        <ele>476.2</ele>
      </trkpt>
      <trkpt lat="45.71436" lon="4.63414">
        <ele>474.1</ele>
      </trkpt>
      <trkpt lat="45.71435" lon="4.63396">
        <ele>472.5</ele>
      </trkpt>
      <trkpt lat="45.71432" lon="4.6338">
        <ele>471.3</ele>
      </trkpt>
      <trkpt lat="45.71429" lon="4.63343">
        <ele>466.4</ele>
      </trkpt>
      <trkpt lat="45.71427" lon="4.63326">
        <ele>464.1</ele>
      </trkpt>
      <trkpt lat="45.7142" lon="4.63283">
        <ele>457.5</ele>
      </trkpt>
      <trkpt lat="45.71417" lon="4.6327">
        <ele>455.3</ele>
      </trkpt>
      <trkpt lat="45.71411" lon="4.63257">
        <ele>453.4</ele>
      </trkpt>
      <trkpt lat="45.71403" lon="4.63247">
        <ele>452.1</ele>
      </trkpt>
      <trkpt lat="45.71391" lon="4.63235">
        <ele>450.4</ele>
      </trkpt>
      <trkpt lat="45.71378" lon="4.63225">
        <ele>447.8</ele>
      </trkpt>
      <trkpt lat="45.71367" lon="4.63219">
        <ele>445.8</ele>
      </trkpt>
      <trkpt lat="45.71363" lon="4.63219">
        <ele>445.8</ele>
      </trkpt>
      <trkpt lat="45.7134" lon="4.63213">
        <ele>442.9</ele>
      </trkpt>
      <trkpt lat="45.71332" lon="4.63211">
        <ele>442</ele>
      </trkpt>
      <trkpt lat="45.71301" lon="4.63195">
        <ele>439.7</ele>
      </trkpt>
      <trkpt lat="45.71285" lon="4.63181">
        <ele>437.8</ele>
      </trkpt>
      <trkpt lat="45.7126" lon="4.63157">
        <ele>436.6</ele>
      </trkpt>
      <trkpt lat="45.71256" lon="4.6315">
        <ele>436.5</ele>
      </trkpt>
      <trkpt lat="45.71248" lon="4.63139">
        <ele>436.2</ele>
      </trkpt>
      <trkpt lat="45.71243" lon="4.63127">
        <ele>437.7</ele>
      </trkpt>
      <trkpt lat="45.71243" lon="4.63116">
        <ele>438.6</ele>
      </trkpt>
      <trkpt lat="45.71247" lon="4.63104">
        <ele>440.6</ele>
      </trkpt>
      <trkpt lat="45.71256" lon="4.63097">
        <ele>442.5</ele>
      </trkpt>
      <trkpt lat="45.71276" lon="4.63092">
        <ele>443.5</ele>
      </trkpt>
      <trkpt lat="45.71295" lon="4.63082">
        <ele>445.2</ele>
      </trkpt>
      <trkpt lat="45.7132" lon="4.63072">
        <ele>446.4</ele>
      </trkpt>
      <trkpt lat="45.71331" lon="4.63065">
        <ele>447.5</ele>
      </trkpt>
      <trkpt lat="45.71335" lon="4.63058">
        <ele>448.7</ele>
      </trkpt>
      <trkpt lat="45.71336" lon="4.6305">
        <ele>450.2</ele>
      </trkpt>
      <trkpt lat="45.71335" lon="4.63045">
        <ele>451.6</ele>
      </trkpt>
      <trkpt lat="45.71328" lon="4.63043">
        <ele>453.8</ele>
      </trkpt>
      <trkpt lat="45.71312" lon="4.6305">
        <ele>454.4</ele>
        <extensions>
          <visugpx:TrkExtension xmlns:visugpx="https://www.visugpx.com/editgpx/">
            <visugpx:node>3</visugpx:node>
            </visugpx:TrkExtension>
        </extensions>
      </trkpt>
      <trkpt lat="45.71328" lon="4.63043">
        <ele>453.8</ele>
      </trkpt>
      <trkpt lat="45.71335" lon="4.63045">
        <ele>451.6</ele>
      </trkpt>
      <trkpt lat="45.71336" lon="4.6305">
        <ele>450.2</ele>
      </trkpt>
      <trkpt lat="45.71338" lon="4.63028">
        <ele>453.9</ele>
      </trkpt>
      <trkpt lat="45.71341" lon="4.6301">
        <ele>455</ele>
      </trkpt>
      <trkpt lat="45.71345" lon="4.62991">
        <ele>457.9</ele>
      </trkpt>
      <trkpt lat="45.71354" lon="4.62968">
        <ele>461.7</ele>
      </trkpt>
      <trkpt lat="45.71357" lon="4.62957">
        <ele>462.8</ele>
      </trkpt>
      <trkpt lat="45.71359" lon="4.62939">
        <ele>465.5</ele>
      </trkpt>
      <trkpt lat="45.71359" lon="4.62926">
        <ele>467.4</ele>
      </trkpt>
      <trkpt lat="45.71359" lon="4.62915">
        <ele>468.7</ele>
      </trkpt>
      <trkpt lat="45.71356" lon="4.62901">
        <ele>470.3</ele>
      </trkpt>
      <trkpt lat="45.71346" lon="4.62864">
        <ele>474.9</ele>
      </trkpt>
      <trkpt lat="45.71336" lon="4.62841">
        <ele>477.6</ele>
      </trkpt>
      <trkpt lat="45.7133" lon="4.62826">
        <ele>479.1</ele>
      </trkpt>
      <trkpt lat="45.71322" lon="4.62806">
        <ele>481.9</ele>
      </trkpt>
      <trkpt lat="45.71316" lon="4.6279">
        <ele>484.1</ele>
      </trkpt>
      <trkpt lat="45.71304" lon="4.62765">
        <ele>487.8</ele>
      </trkpt>
      <trkpt lat="45.71298" lon="4.6275">
        <ele>489.3</ele>
      </trkpt>
      <trkpt lat="45.71292" lon="4.62744">
        <ele>491.2</ele>
      </trkpt>
      <trkpt lat="45.71274" lon="4.62715">
        <ele>496</ele>
      </trkpt>
      <trkpt lat="45.71242" lon="4.62665">
        <ele>504.2</ele>
      </trkpt>
      <trkpt lat="45.71225" lon="4.62635">
        <ele>508.3</ele>
      </trkpt>
      <trkpt lat="45.71208" lon="4.62603">
        <ele>512.1</ele>
      </trkpt>
      <trkpt lat="45.71197" lon="4.62585">
        <ele>514.2</ele>
      </trkpt>
      <trkpt lat="45.71189" lon="4.62568">
        <ele>516.3</ele>
      </trkpt>
      <trkpt lat="45.71173" lon="4.62525">
        <ele>518.9</ele>
      </trkpt>
      <trkpt lat="45.71166" lon="4.62515">
        <ele>520.4</ele>
      </trkpt>
      <trkpt lat="45.71154" lon="4.62505">
        <ele>522.1</ele>
      </trkpt>
      <trkpt lat="45.71145" lon="4.62503">
        <ele>524.1</ele>
      </trkpt>
      <trkpt lat="45.71128" lon="4.62501">
        <ele>526.4</ele>
      </trkpt>
      <trkpt lat="45.71109" lon="4.62502">
        <ele>528.7</ele>
      </trkpt>
      <trkpt lat="45.71076" lon="4.62502">
        <ele>532.7</ele>
      </trkpt>
      <trkpt lat="45.7106" lon="4.625">
        <ele>535.2</ele>
      </trkpt>
      <trkpt lat="45.71035" lon="4.62495">
        <ele>540.4</ele>
      </trkpt>
      <trkpt lat="45.71032" lon="4.62508">
        <ele>543.1</ele>
      </trkpt>
      <trkpt lat="45.71032" lon="4.6252">
        <ele>544.9</ele>
      </trkpt>
      <trkpt lat="45.71036" lon="4.62533">
        <ele>546.1</ele>
      </trkpt>
      <trkpt lat="45.71039" lon="4.62547">
        <ele>547.9</ele>
      </trkpt>
      <trkpt lat="45.71046" lon="4.62561">
        <ele>549.5</ele>
      </trkpt>
      <trkpt lat="45.71046" lon="4.62564">
        <ele>550.1</ele>
      </trkpt>
      <trkpt lat="45.71048" lon="4.62576">
        <ele>552.3</ele>
      </trkpt>
      <trkpt lat="45.71043" lon="4.62587">
        <ele>555</ele>
        <extensions>
          <visugpx:TrkExtension xmlns:visugpx="https://www.visugpx.com/editgpx/">
            <visugpx:node>4</visugpx:node>
            </visugpx:TrkExtension>
        </extensions>
      </trkpt>
      <trkpt lat="45.71027" lon="4.62618">
        <ele>559.6</ele>
      </trkpt>
      <trkpt lat="45.71016" lon="4.62626">
        <ele>560.9</ele>
      </trkpt>
      <trkpt lat="45.71005" lon="4.6263">
        <ele>561.7</ele>
      </trkpt>
      <trkpt lat="45.71002" lon="4.6263">
        <ele>561.9</ele>
      </trkpt>
      <trkpt lat="45.70995" lon="4.62629">
        <ele>563</ele>
      </trkpt>
      <trkpt lat="45.70983" lon="4.62621">
        <ele>565.8</ele>
      </trkpt>
      <trkpt lat="45.7097" lon="4.62609">
        <ele>569.5</ele>
      </trkpt>
      <trkpt lat="45.70956" lon="4.62592">
        <ele>572.1</ele>
      </trkpt>
      <trkpt lat="45.70945" lon="4.62575">
        <ele>574.2</ele>
      </trkpt>
      <trkpt lat="45.7094" lon="4.62569">
        <ele>575.5</ele>
      </trkpt>
      <trkpt lat="45.70905" lon="4.62575">
        <ele>581.4</ele>
      </trkpt>
      <trkpt lat="45.70895" lon="4.62575">
        <ele>582.2</ele>
      </trkpt>
      <trkpt lat="45.70885" lon="4.62571">
        <ele>582.8</ele>
      </trkpt>
      <trkpt lat="45.70864" lon="4.62557">
        <ele>582.1</ele>
      </trkpt>
      <trkpt lat="45.70858" lon="4.62544">
        <ele>583.1</ele>
      </trkpt>
      <trkpt lat="45.70853" lon="4.62529">
        <ele>584.6</ele>
      </trkpt>
      <trkpt lat="45.70842" lon="4.62512">
        <ele>582.9</ele>
      </trkpt>
      <trkpt lat="45.70834" lon="4.62503">
        <ele>582.9</ele>
      </trkpt>
      <trkpt lat="45.7083" lon="4.62498">
        <ele>583.6</ele>
      </trkpt>
      <trkpt lat="45.70825" lon="4.6249">
        <ele>584.8</ele>
      </trkpt>
      <trkpt lat="45.70821" lon="4.62482">
        <ele>586.1</ele>
      </trkpt>
      <trkpt lat="45.70817" lon="4.62463">
        <ele>587.9</ele>
      </trkpt>
      <trkpt lat="45.70816" lon="4.6245">
        <ele>588.5</ele>
      </trkpt>
      <trkpt lat="45.70815" lon="4.62427">
        <ele>588.7</ele>
      </trkpt>
      <trkpt lat="45.70813" lon="4.62391">
        <ele>588.8</ele>
      </trkpt>
      <trkpt lat="45.70811" lon="4.62377">
        <ele>589.6</ele>
      </trkpt>
      <trkpt lat="45.70808" lon="4.62388">
        <ele>590.9</ele>
      </trkpt>
      <trkpt lat="45.70796" lon="4.62421">
        <ele>595.4</ele>
      </trkpt>
      <trkpt lat="45.70789" lon="4.62444">
        <ele>597.4</ele>
      </trkpt>
      <trkpt lat="45.70785" lon="4.62451">
        <ele>598.8</ele>
      </trkpt>
      <trkpt lat="45.70783" lon="4.62457">
        <ele>599.6</ele>
      </trkpt>
      <trkpt lat="45.70777" lon="4.62462">
        <ele>601.7</ele>
      </trkpt>
      <trkpt lat="45.70771" lon="4.62462">
        <ele>602.6</ele>
      </trkpt>
      <trkpt lat="45.70762" lon="4.62451">
        <ele>604.2</ele>
      </trkpt>
      <trkpt lat="45.70757" lon="4.62444">
        <ele>605.5</ele>
      </trkpt>
      <trkpt lat="45.70749" lon="4.6244">
        <ele>607.4</ele>
      </trkpt>
      <trkpt lat="45.70743" lon="4.6244">
        <ele>608.2</ele>
      </trkpt>
      <trkpt lat="45.70735" lon="4.62429">
        <ele>610.6</ele>
      </trkpt>
      <trkpt lat="45.70731" lon="4.62424">
        <ele>612</ele>
      </trkpt>
      <trkpt lat="45.70729" lon="4.62408">
        <ele>614.7</ele>
      </trkpt>
      <trkpt lat="45.70727" lon="4.62404">
        <ele>615.7</ele>
      </trkpt>
      <trkpt lat="45.70723" lon="4.62401">
        <ele>617.1</ele>
      </trkpt>
      <trkpt lat="45.70715" lon="4.62397">
        <ele>618.3</ele>
      </trkpt>
      <trkpt lat="45.70713" lon="4.62395">
        <ele>618.7</ele>
      </trkpt>
      <trkpt lat="45.70711" lon="4.6239">
        <ele>619.6</ele>
      </trkpt>
      <trkpt lat="45.70702" lon="4.62366">
        <ele>625</ele>
      </trkpt>
      <trkpt lat="45.70697" lon="4.62351">
        <ele>628.4</ele>
      </trkpt>
      <trkpt lat="45.70697" lon="4.62325">
        <ele>632.6</ele>
      </trkpt>
      <trkpt lat="45.70696" lon="4.62324">
        <ele>633</ele>
      </trkpt>
      <trkpt lat="45.70694" lon="4.62321">
        <ele>633.7</ele>
        <extensions>
          <visugpx:TrkExtension xmlns:visugpx="https://www.visugpx.com/editgpx/">
            <visugpx:node>5</visugpx:node>
            </visugpx:TrkExtension>
        </extensions>
      </trkpt>
      <trkpt lat="45.70692" lon="4.62317">
        <ele>633.7</ele>
      </trkpt>
      <trkpt lat="45.7069" lon="4.62306">
        <ele>634.8</ele>
      </trkpt>
      <trkpt lat="45.70691" lon="4.62293">
        <ele>637.1</ele>
      </trkpt>
      <trkpt lat="45.70695" lon="4.62279">
        <ele>639.7</ele>
      </trkpt>
      <trkpt lat="45.70697" lon="4.62263">
        <ele>641</ele>
      </trkpt>
      <trkpt lat="45.70697" lon="4.62251">
        <ele>642.3</ele>
      </trkpt>
      <trkpt lat="45.70692" lon="4.62235">
        <ele>643.9</ele>
      </trkpt>
      <trkpt lat="45.70687" lon="4.62223">
        <ele>644.7</ele>
      </trkpt>
      <trkpt lat="45.70684" lon="4.6222">
        <ele>644.8</ele>
      </trkpt>
      <trkpt lat="45.7068" lon="4.62215">
        <ele>645</ele>
      </trkpt>
      <trkpt lat="45.70674" lon="4.62202">
        <ele>646.1</ele>
      </trkpt>
      <trkpt lat="45.70666" lon="4.62125">
        <ele>652.3</ele>
      </trkpt>
      <trkpt lat="45.70666" lon="4.62108">
        <ele>654</ele>
      </trkpt>
      <trkpt lat="45.70666" lon="4.62106">
        <ele>654</ele>
      </trkpt>
      <trkpt lat="45.70668" lon="4.62097">
        <ele>654.4</ele>
      </trkpt>
      <trkpt lat="45.70671" lon="4.62089">
        <ele>654.5</ele>
      </trkpt>
      <trkpt lat="45.70675" lon="4.62079">
        <ele>654.7</ele>
      </trkpt>
      <trkpt lat="45.70678" lon="4.62066">
        <ele>655.2</ele>
      </trkpt>
      <trkpt lat="45.70679" lon="4.62054">
        <ele>655.7</ele>
      </trkpt>
      <trkpt lat="45.70678" lon="4.62023">
        <ele>657.1</ele>
      </trkpt>
      <trkpt lat="45.70683" lon="4.62002">
        <ele>658.1</ele>
      </trkpt>
      <trkpt lat="45.70688" lon="4.61973">
        <ele>660.4</ele>
      </trkpt>
      <trkpt lat="45.70694" lon="4.61944">
        <ele>661</ele>
      </trkpt>
      <trkpt lat="45.70694" lon="4.61938">
        <ele>661.5</ele>
      </trkpt>
      <trkpt lat="45.70694" lon="4.61934">
        <ele>661.8</ele>
      </trkpt>
      <trkpt lat="45.70693" lon="4.61921">
        <ele>662.7</ele>
      </trkpt>
      <trkpt lat="45.70685" lon="4.61881">
        <ele>666.1</ele>
      </trkpt>
      <trkpt lat="45.70683" lon="4.61859">
        <ele>667.3</ele>
      </trkpt>
      <trkpt lat="45.70679" lon="4.61841">
        <ele>668.1</ele>
      </trkpt>
      <trkpt lat="45.70668" lon="4.61758">
        <ele>671.7</ele>
      </trkpt>
      <trkpt lat="45.70665" lon="4.61714">
        <ele>674.5</ele>
      </trkpt>
      <trkpt lat="45.70662" lon="4.61676">
        <ele>675.8</ele>
      </trkpt>
      <trkpt lat="45.70659" lon="4.61668">
        <ele>675.7</ele>
      </trkpt>
      <trkpt lat="45.70653" lon="4.61661">
        <ele>675.4</ele>
      </trkpt>
      <trkpt lat="45.70606" lon="4.61623">
        <ele>676.4</ele>
      </trkpt>
      <trkpt lat="45.706" lon="4.61621">
        <ele>676.8</ele>
      </trkpt>
      <trkpt lat="45.70563" lon="4.61623">
        <ele>679.5</ele>
      </trkpt>
      <trkpt lat="45.7055" lon="4.61627">
        <ele>680.9</ele>
      </trkpt>
      <trkpt lat="45.70541" lon="4.61633">
        <ele>682.5</ele>
      </trkpt>
      <trkpt lat="45.7053" lon="4.61644">
        <ele>684.4</ele>
      </trkpt>
      <trkpt lat="45.70522" lon="4.61655">
        <ele>685.6</ele>
      </trkpt>
      <trkpt lat="45.70511" lon="4.6169">
        <ele>688.1</ele>
      </trkpt>
      <trkpt lat="45.70503" lon="4.61705">
        <ele>688.4</ele>
      </trkpt>
      <trkpt lat="45.70491" lon="4.61737">
        <ele>689.9</ele>
      </trkpt>
      <trkpt lat="45.70488" lon="4.61743">
        <ele>690.9</ele>
      </trkpt>
      <trkpt lat="45.70485" lon="4.61757">
        <ele>691.6</ele>
      </trkpt>
      <trkpt lat="45.70483" lon="4.61763">
        <ele>692</ele>
      </trkpt>
      <trkpt lat="45.70475" lon="4.61802">
        <ele>693.3</ele>
      </trkpt>
      <trkpt lat="45.70457" lon="4.61872">
        <ele>694.5</ele>
      </trkpt>
      <trkpt lat="45.70443" lon="4.61969">
        <ele>694.8</ele>
      </trkpt>
      <trkpt lat="45.70431" lon="4.6201">
        <ele>696.3</ele>
      </trkpt>
      <trkpt lat="45.70425" lon="4.62025">
        <ele>697.1</ele>
      </trkpt>
      <trkpt lat="45.70421" lon="4.62034">
        <ele>697.3</ele>
      </trkpt>
      <trkpt lat="45.70399" lon="4.62051">
        <ele>700.8</ele>
      </trkpt>
      <trkpt lat="45.7038" lon="4.62062">
        <ele>704.2</ele>
      </trkpt>
      <trkpt lat="45.70359" lon="4.62079">
        <ele>707</ele>
      </trkpt>
      <trkpt lat="45.70357" lon="4.62081">
        <ele>707.3</ele>
      </trkpt>
      <trkpt lat="45.70327" lon="4.62107">
        <ele>710.9</ele>
      </trkpt>
      <trkpt lat="45.70312" lon="4.6212">
        <ele>712.2</ele>
      </trkpt>
      <trkpt lat="45.70297" lon="4.6213">
        <ele>712.5</ele>
      </trkpt>
      <trkpt lat="45.7028" lon="4.62137">
        <ele>713.1</ele>
      </trkpt>
      <trkpt lat="45.70275" lon="4.62137">
        <ele>713.4</ele>
        <extensions>
          <visugpx:TrkExtension xmlns:visugpx="https://www.visugpx.com/editgpx/">
            <visugpx:node>6</visugpx:node>
            </visugpx:TrkExtension>
        </extensions>
      </trkpt>
      <trkpt lat="45.70252" lon="4.6214">
        <ele>713.7</ele>
      </trkpt>
      <trkpt lat="45.70214" lon="4.62139">
        <ele>713.4</ele>
      </trkpt>
      <trkpt lat="45.70203" lon="4.62135">
        <ele>713.6</ele>
      </trkpt>
      <trkpt lat="45.70199" lon="4.62129">
        <ele>714.8</ele>
      </trkpt>
      <trkpt lat="45.70183" lon="4.6211">
        <ele>717.2</ele>
      </trkpt>
      <trkpt lat="45.70173" lon="4.62096">
        <ele>718.8</ele>
      </trkpt>
      <trkpt lat="45.70151" lon="4.62074">
        <ele>720.6</ele>
      </trkpt>
      <trkpt lat="45.70141" lon="4.62063">
        <ele>721.6</ele>
      </trkpt>
      <trkpt lat="45.70135" lon="4.62057">
        <ele>722.1</ele>
      </trkpt>
      <trkpt lat="45.70109" lon="4.62046">
        <ele>720.5</ele>
      </trkpt>
      <trkpt lat="45.70098" lon="4.6204">
        <ele>720.1</ele>
      </trkpt>
      <trkpt lat="45.7009" lon="4.6203">
        <ele>720.6</ele>
      </trkpt>
      <trkpt lat="45.70078" lon="4.62014">
        <ele>721.4</ele>
      </trkpt>
      <trkpt lat="45.70074" lon="4.6201">
        <ele>721.5</ele>
      </trkpt>
      <trkpt lat="45.70064" lon="4.62029">
        <ele>718.4</ele>
      </trkpt>
      <trkpt lat="45.70061" lon="4.62039">
        <ele>716.5</ele>
      </trkpt>
      <trkpt lat="45.70061" lon="4.62044">
        <ele>715.6</ele>
      </trkpt>
      <trkpt lat="45.70062" lon="4.62048">
        <ele>715</ele>
      </trkpt>
      <trkpt lat="45.70067" lon="4.62059">
        <ele>713.5</ele>
      </trkpt>
      <trkpt lat="45.70072" lon="4.62069">
        <ele>712.2</ele>
      </trkpt>
      <trkpt lat="45.70071" lon="4.62076">
        <ele>710.7</ele>
      </trkpt>
      <trkpt lat="45.70066" lon="4.6208">
        <ele>709.2</ele>
      </trkpt>
      <trkpt lat="45.70067" lon="4.62088">
        <ele>707.3</ele>
      </trkpt>
      <trkpt lat="45.70073" lon="4.62105">
        <ele>703.5</ele>
      </trkpt>
      <trkpt lat="45.70089" lon="4.62138">
        <ele>696.5</ele>
      </trkpt>
      <trkpt lat="45.70097" lon="4.62147">
        <ele>694.7</ele>
      </trkpt>
      <trkpt lat="45.7011" lon="4.62158">
        <ele>693.2</ele>
      </trkpt>
      <trkpt lat="45.70119" lon="4.62167">
        <ele>691.3</ele>
      </trkpt>
      <trkpt lat="45.70142" lon="4.62185">
        <ele>689.1</ele>
      </trkpt>
      <trkpt lat="45.70151" lon="4.62194">
        <ele>688.2</ele>
      </trkpt>
      <trkpt lat="45.70169" lon="4.62221">
        <ele>684.1</ele>
      </trkpt>
      <trkpt lat="45.70182" lon="4.62237">
        <ele>682.9</ele>
      </trkpt>
      <trkpt lat="45.70191" lon="4.62249">
        <ele>682.2</ele>
      </trkpt>
      <trkpt lat="45.70205" lon="4.62268">
        <ele>681.5</ele>
      </trkpt>
      <trkpt lat="45.70241" lon="4.62327">
        <ele>675.7</ele>
      </trkpt>
      <trkpt lat="45.70244" lon="4.62335">
        <ele>674.5</ele>
      </trkpt>
      <trkpt lat="45.70253" lon="4.62344">
        <ele>674.2</ele>
      </trkpt>
      <trkpt lat="45.70275" lon="4.62386">
        <ele>672.4</ele>
      </trkpt>
      <trkpt lat="45.70294" lon="4.62431">
        <ele>671.6</ele>
      </trkpt>
      <trkpt lat="45.70299" lon="4.62442">
        <ele>671.5</ele>
      </trkpt>
      <trkpt lat="45.70318" lon="4.62479">
        <ele>669.5</ele>
      </trkpt>
      <trkpt lat="45.70322" lon="4.62491">
        <ele>669.1</ele>
      </trkpt>
      <trkpt lat="45.70322" lon="4.62499">
        <ele>668.2</ele>
      </trkpt>
      <trkpt lat="45.7032" lon="4.6251">
        <ele>666.6</ele>
      </trkpt>
      <trkpt lat="45.7032" lon="4.62514">
        <ele>666.1</ele>
      </trkpt>
      <trkpt lat="45.70321" lon="4.62527">
        <ele>665</ele>
      </trkpt>
      <trkpt lat="45.70327" lon="4.62558">
        <ele>663.2</ele>
      </trkpt>
      <trkpt lat="45.70331" lon="4.62566">
        <ele>662.7</ele>
      </trkpt>
      <trkpt lat="45.70337" lon="4.62579">
        <ele>660.7</ele>
      </trkpt>
      <trkpt lat="45.70336" lon="4.62589">
        <ele>659.3</ele>
      </trkpt>
      <trkpt lat="45.70323" lon="4.62593">
        <ele>657.6</ele>
      </trkpt>
      <trkpt lat="45.70315" lon="4.62602">
        <ele>655.8</ele>
      </trkpt>
      <trkpt lat="45.70307" lon="4.62613">
        <ele>654.2</ele>
      </trkpt>
      <trkpt lat="45.70303" lon="4.62622">
        <ele>653.3</ele>
      </trkpt>
      <trkpt lat="45.70298" lon="4.62634">
        <ele>651.6</ele>
      </trkpt>
      <trkpt lat="45.70292" lon="4.62652">
        <ele>649.6</ele>
      </trkpt>
      <trkpt lat="45.70281" lon="4.62687">
        <ele>646.2</ele>
      </trkpt>
      <trkpt lat="45.70268" lon="4.62724">
        <ele>644.3</ele>
      </trkpt>
      <trkpt lat="45.70257" lon="4.6275">
        <ele>641.8</ele>
      </trkpt>
      <trkpt lat="45.70243" lon="4.62776">
        <ele>640.7</ele>
      </trkpt>
      <trkpt lat="45.70234" lon="4.62787">
        <ele>638.3</ele>
      </trkpt>
      <trkpt lat="45.70226" lon="4.62796">
        <ele>636.2</ele>
      </trkpt>
      <trkpt lat="45.70212" lon="4.62808">
        <ele>632.4</ele>
      </trkpt>
      <trkpt lat="45.70203" lon="4.62822">
        <ele>631.3</ele>
      </trkpt>
      <trkpt lat="45.70176" lon="4.62867">
        <ele>629</ele>
      </trkpt>
      <trkpt lat="45.70163" lon="4.62888">
        <ele>628.4</ele>
      </trkpt>
      <trkpt lat="45.70153" lon="4.62901">
        <ele>627</ele>
      </trkpt>
      <trkpt lat="45.70141" lon="4.62916">
        <ele>625.6</ele>
      </trkpt>
      <trkpt lat="45.70126" lon="4.62932">
        <ele>625.3</ele>
      </trkpt>
      <trkpt lat="45.70108" lon="4.62948">
        <ele>624.9</ele>
      </trkpt>
      <trkpt lat="45.70076" lon="4.62967">
        <ele>621</ele>
      </trkpt>
      <trkpt lat="45.69995" lon="4.63001">
        <ele>613.1</ele>
      </trkpt>
      <trkpt lat="45.69989" lon="4.63002">
        <ele>612.1</ele>
      </trkpt>
      <trkpt lat="45.69975" lon="4.63001">
        <ele>608.8</ele>
      </trkpt>
      <trkpt lat="45.69969" lon="4.63003">
        <ele>607.9</ele>
      </trkpt>
      <trkpt lat="45.69933" lon="4.63009">
        <ele>600.3</ele>
      </trkpt>
      <trkpt lat="45.69926" lon="4.63012">
        <ele>598.8</ele>
      </trkpt>
      <trkpt lat="45.69917" lon="4.63018">
        <ele>597</ele>
      </trkpt>
      <trkpt lat="45.6991" lon="4.63019">
        <ele>595.2</ele>
      </trkpt>
      <trkpt lat="45.69909" lon="4.63025">
        <ele>595.5</ele>
      </trkpt>
      <trkpt lat="45.69907" lon="4.63028">
        <ele>595.2</ele>
      </trkpt>
      <trkpt lat="45.69904" lon="4.63032">
        <ele>594.5</ele>
      </trkpt>
      <trkpt lat="45.69901" lon="4.63035">
        <ele>593.7</ele>
      </trkpt>
      <trkpt lat="45.69898" lon="4.63039">
        <ele>592.9</ele>
      </trkpt>
      <trkpt lat="45.69895" lon="4.63042">
        <ele>592</ele>
      </trkpt>
      <trkpt lat="45.69889" lon="4.63052">
        <ele>590</ele>
      </trkpt>
      <trkpt lat="45.69881" lon="4.63065">
        <ele>588.1</ele>
      </trkpt>
      <trkpt lat="45.69874" lon="4.63077">
        <ele>586.7</ele>
      </trkpt>
      <trkpt lat="45.69869" lon="4.63087">
        <ele>585.7</ele>
      </trkpt>
      <trkpt lat="45.69864" lon="4.63094">
        <ele>584.3</ele>
      </trkpt>
      <trkpt lat="45.69856" lon="4.63107">
        <ele>582.2</ele>
      </trkpt>
      <trkpt lat="45.69852" lon="4.63115">
        <ele>581.2</ele>
      </trkpt>
      <trkpt lat="45.69848" lon="4.63122">
        <ele>580.1</ele>
      </trkpt>
      <trkpt lat="45.69844" lon="4.63126">
        <ele>579</ele>
      </trkpt>
      <trkpt lat="45.69838" lon="4.63133">
        <ele>577.3</ele>
      </trkpt>
      <trkpt lat="45.69835" lon="4.63136">
        <ele>576.4</ele>
      </trkpt>
      <trkpt lat="45.69831" lon="4.63141">
        <ele>575.4</ele>
      </trkpt>
      <trkpt lat="45.6982" lon="4.63159">
        <ele>573.1</ele>
      </trkpt>
      <trkpt lat="45.69815" lon="4.6317">
        <ele>572.1</ele>
      </trkpt>
      <trkpt lat="45.69809" lon="4.63185">
        <ele>570.7</ele>
      </trkpt>
      <trkpt lat="45.69804" lon="4.63198">
        <ele>569.4</ele>
      </trkpt>
      <trkpt lat="45.69804" lon="4.63181">
        <ele>569</ele>
        <extensions>
          <visugpx:TrkExtension xmlns:visugpx="https://www.visugpx.com/editgpx/">
            <visugpx:node>7</visugpx:node>
            </visugpx:TrkExtension>
        </extensions>
      </trkpt>
      <trkpt lat="45.69804" lon="4.63198">
        <ele>569.4</ele>
      </trkpt>
      <trkpt lat="45.69804" lon="4.63203">
        <ele>569.2</ele>
      </trkpt>
      <trkpt lat="45.698" lon="4.6322">
        <ele>567.5</ele>
      </trkpt>
      <trkpt lat="45.69797" lon="4.63242">
        <ele>565.3</ele>
      </trkpt>
      <trkpt lat="45.69794" lon="4.63263">
        <ele>563</ele>
      </trkpt>
      <trkpt lat="45.69792" lon="4.63295">
        <ele>559.5</ele>
      </trkpt>
      <trkpt lat="45.69792" lon="4.63305">
        <ele>558.6</ele>
      </trkpt>
      <trkpt lat="45.69792" lon="4.63314">
        <ele>557.4</ele>
      </trkpt>
      <trkpt lat="45.69793" lon="4.63325">
        <ele>556</ele>
      </trkpt>
      <trkpt lat="45.69793" lon="4.63332">
        <ele>555</ele>
      </trkpt>
      <trkpt lat="45.69795" lon="4.63338">
        <ele>554.5</ele>
      </trkpt>
      <trkpt lat="45.69798" lon="4.63343">
        <ele>554.2</ele>
      </trkpt>
      <trkpt lat="45.69803" lon="4.63351">
        <ele>553.7</ele>
      </trkpt>
      <trkpt lat="45.69811" lon="4.63362">
        <ele>552.8</ele>
      </trkpt>
      <trkpt lat="45.69818" lon="4.63371">
        <ele>551.9</ele>
      </trkpt>
      <trkpt lat="45.69825" lon="4.6338">
        <ele>550.9</ele>
      </trkpt>
      <trkpt lat="45.69831" lon="4.63388">
        <ele>549.9</ele>
      </trkpt>
      <trkpt lat="45.69837" lon="4.63394">
        <ele>549.5</ele>
      </trkpt>
      <trkpt lat="45.69843" lon="4.63397">
        <ele>549.9</ele>
      </trkpt>
      <trkpt lat="45.69846" lon="4.63401">
        <ele>549.5</ele>
      </trkpt>
      <trkpt lat="45.6985" lon="4.63406">
        <ele>548.9</ele>
      </trkpt>
      <trkpt lat="45.69856" lon="4.63415">
        <ele>547.5</ele>
      </trkpt>
      <trkpt lat="45.69859" lon="4.63421">
        <ele>546.8</ele>
      </trkpt>
      <trkpt lat="45.69862" lon="4.63431">
        <ele>545.7</ele>
      </trkpt>
      <trkpt lat="45.69864" lon="4.63439">
        <ele>545.1</ele>
      </trkpt>
      <trkpt lat="45.69865" lon="4.63449">
        <ele>544.2</ele>
      </trkpt>
      <trkpt lat="45.69865" lon="4.63458">
        <ele>543.5</ele>
      </trkpt>
      <trkpt lat="45.69864" lon="4.63475">
        <ele>541.7</ele>
      </trkpt>
      <trkpt lat="45.69863" lon="4.63484">
        <ele>540.4</ele>
      </trkpt>
      <trkpt lat="45.69863" lon="4.63493">
        <ele>539.4</ele>
      </trkpt>
      <trkpt lat="45.69864" lon="4.63498">
        <ele>539.2</ele>
      </trkpt>
      <trkpt lat="45.69866" lon="4.63513">
        <ele>538.2</ele>
      </trkpt>
      <trkpt lat="45.69868" lon="4.63528">
        <ele>537.2</ele>
      </trkpt>
      <trkpt lat="45.69868" lon="4.63538">
        <ele>537</ele>
      </trkpt>
      <trkpt lat="45.69865" lon="4.63547">
        <ele>535.7</ele>
      </trkpt>
      <trkpt lat="45.69862" lon="4.63554">
        <ele>534.4</ele>
      </trkpt>
      <trkpt lat="45.69856" lon="4.63568">
        <ele>532.6</ele>
      </trkpt>
      <trkpt lat="45.6985" lon="4.63588">
        <ele>531.1</ele>
      </trkpt>
      <trkpt lat="45.69846" lon="4.63607">
        <ele>530</ele>
      </trkpt>
      <trkpt lat="45.69842" lon="4.63624">
        <ele>528.5</ele>
      </trkpt>
      <trkpt lat="45.69839" lon="4.63642">
        <ele>526.9</ele>
      </trkpt>
      <trkpt lat="45.69834" lon="4.63668">
        <ele>524.2</ele>
      </trkpt>
      <trkpt lat="45.69832" lon="4.63681">
        <ele>523.7</ele>
      </trkpt>
      <trkpt lat="45.69829" lon="4.63692">
        <ele>523</ele>
      </trkpt>
      <trkpt lat="45.69826" lon="4.63699">
        <ele>522.7</ele>
      </trkpt>
      <trkpt lat="45.69824" lon="4.63702">
        <ele>522.5</ele>
      </trkpt>
      <trkpt lat="45.69821" lon="4.63705">
        <ele>522.1</ele>
      </trkpt>
      <trkpt lat="45.69819" lon="4.63707">
        <ele>521.8</ele>
      </trkpt>
      <trkpt lat="45.69816" lon="4.63709">
        <ele>521.3</ele>
      </trkpt>
      <trkpt lat="45.69813" lon="4.63712">
        <ele>520.9</ele>
      </trkpt>
      <trkpt lat="45.69809" lon="4.63719">
        <ele>520.5</ele>
      </trkpt>
      <trkpt lat="45.69803" lon="4.63729">
        <ele>519.9</ele>
      </trkpt>
      <trkpt lat="45.69797" lon="4.63741">
        <ele>519.2</ele>
      </trkpt>
      <trkpt lat="45.6979" lon="4.63757">
        <ele>518.2</ele>
      </trkpt>
      <trkpt lat="45.69783" lon="4.63772">
        <ele>516.9</ele>
      </trkpt>
      <trkpt lat="45.69779" lon="4.63779">
        <ele>516.1</ele>
      </trkpt>
      <trkpt lat="45.69775" lon="4.63784">
        <ele>515.2</ele>
      </trkpt>
      <trkpt lat="45.69771" lon="4.63787">
        <ele>514.4</ele>
      </trkpt>
      <trkpt lat="45.69768" lon="4.63789">
        <ele>513.9</ele>
      </trkpt>
      <trkpt lat="45.69765" lon="4.63792">
        <ele>513.4</ele>
      </trkpt>
      <trkpt lat="45.69763" lon="4.63795">
        <ele>513</ele>
      </trkpt>
      <trkpt lat="45.69761" lon="4.63799">
        <ele>512.5</ele>
      </trkpt>
      <trkpt lat="45.6976" lon="4.63807">
        <ele>511.9</ele>
      </trkpt>
      <trkpt lat="45.69759" lon="4.63816">
        <ele>510.6</ele>
      </trkpt>
      <trkpt lat="45.69759" lon="4.63825">
        <ele>509.4</ele>
      </trkpt>
      <trkpt lat="45.6976" lon="4.63833">
        <ele>508.5</ele>
      </trkpt>
      <trkpt lat="45.69762" lon="4.63839">
        <ele>507.8</ele>
      </trkpt>
      <trkpt lat="45.69764" lon="4.63847">
        <ele>506.8</ele>
      </trkpt>
      <trkpt lat="45.69767" lon="4.63858">
        <ele>505.4</ele>
      </trkpt>
      <trkpt lat="45.69768" lon="4.63867">
        <ele>503.9</ele>
      </trkpt>
      <trkpt lat="45.69768" lon="4.63876">
        <ele>502.3</ele>
      </trkpt>
      <trkpt lat="45.69766" lon="4.63882">
        <ele>501</ele>
      </trkpt>
      <trkpt lat="45.69764" lon="4.63886">
        <ele>500</ele>
      </trkpt>
      <trkpt lat="45.69761" lon="4.6389">
        <ele>499</ele>
      </trkpt>
      <trkpt lat="45.69758" lon="4.63891">
        <ele>498.5</ele>
      </trkpt>
      <trkpt lat="45.69752" lon="4.63893">
        <ele>497.6</ele>
      </trkpt>
      <trkpt lat="45.69746" lon="4.63894">
        <ele>497.1</ele>
      </trkpt>
      <trkpt lat="45.6974" lon="4.63896">
        <ele>496.5</ele>
      </trkpt>
      <trkpt lat="45.69736" lon="4.63899">
        <ele>495.9</ele>
      </trkpt>
      <trkpt lat="45.69731" lon="4.63901">
        <ele>495.3</ele>
      </trkpt>
      <trkpt lat="45.69725" lon="4.63903">
        <ele>494.6</ele>
      </trkpt>
      <trkpt lat="45.69719" lon="4.63907">
        <ele>493.9</ele>
      </trkpt>
      <trkpt lat="45.69738" lon="4.63908">
        <ele>494.5</ele>
      </trkpt>
      <trkpt lat="45.69758" lon="4.63909">
        <ele>495.8</ele>
      </trkpt>
      <trkpt lat="45.69775" lon="4.63917">
        <ele>495.8</ele>
      </trkpt>
      <trkpt lat="45.69788" lon="4.63925">
        <ele>497.7</ele>
      </trkpt>
      <trkpt lat="45.69793" lon="4.63935">
        <ele>498.3</ele>
      </trkpt>
      <trkpt lat="45.69792" lon="4.63945">
        <ele>497.6</ele>
      </trkpt>
      <trkpt lat="45.69782" lon="4.63965">
        <ele>497.3</ele>
      </trkpt>
      <trkpt lat="45.69767" lon="4.64">
        <ele>497.3</ele>
      </trkpt>
      <trkpt lat="45.69762" lon="4.6403">
        <ele>498.6</ele>
      </trkpt>
      <trkpt lat="45.69765" lon="4.64051">
        <ele>499.2</ele>
      </trkpt>
      <trkpt lat="45.69767" lon="4.64059">
        <ele>499.3</ele>
      </trkpt>
      <trkpt lat="45.69767" lon="4.64066">
        <ele>498.4</ele>
      </trkpt>
      <trkpt lat="45.69772" lon="4.64101">
        <ele>495.4</ele>
      </trkpt>
      <trkpt lat="45.69774" lon="4.6411">
        <ele>494.9</ele>
      </trkpt>
      <trkpt lat="45.69774" lon="4.64121">
        <ele>494.6</ele>
      </trkpt>
      <trkpt lat="45.69773" lon="4.64127">
        <ele>494.2</ele>
      </trkpt>
      <trkpt lat="45.69745" lon="4.64164">
        <ele>492.6</ele>
      </trkpt>
      <trkpt lat="45.69735" lon="4.64185">
        <ele>494.6</ele>
      </trkpt>
      <trkpt lat="45.69731" lon="4.64218">
        <ele>499.6</ele>
      </trkpt>
      <trkpt lat="45.69725" lon="4.64249">
        <ele>502.4</ele>
      </trkpt>
      <trkpt lat="45.69723" lon="4.6426">
        <ele>503.2</ele>
      </trkpt>
      <trkpt lat="45.69706" lon="4.64324">
        <ele>506.4</ele>
      </trkpt>
      <trkpt lat="45.69704" lon="4.64341">
        <ele>506.7</ele>
      </trkpt>
      <trkpt lat="45.69703" lon="4.64351">
        <ele>506.5</ele>
      </trkpt>
      <trkpt lat="45.69703" lon="4.64371">
        <ele>506.2</ele>
      </trkpt>
      <trkpt lat="45.69707" lon="4.6439">
        <ele>506.1</ele>
      </trkpt>
      <trkpt lat="45.69712" lon="4.64406">
        <ele>505.3</ele>
      </trkpt>
      <trkpt lat="45.69722" lon="4.64427">
        <ele>503.4</ele>
      </trkpt>
      <trkpt lat="45.69731" lon="4.64437">
        <ele>501.9</ele>
      </trkpt>
      <trkpt lat="45.69741" lon="4.64443">
        <ele>501.4</ele>
      </trkpt>
      <trkpt lat="45.69758" lon="4.64448">
        <ele>501.2</ele>
      </trkpt>
      <trkpt lat="45.69783" lon="4.64449">
        <ele>501.6</ele>
      </trkpt>
      <trkpt lat="45.69791" lon="4.64452">
        <ele>501.6</ele>
      </trkpt>
      <trkpt lat="45.69797" lon="4.64457">
        <ele>501.5</ele>
      </trkpt>
      <trkpt lat="45.69798" lon="4.64459">
        <ele>501.4</ele>
      </trkpt>
      <trkpt lat="45.69801" lon="4.64465">
        <ele>501.1</ele>
      </trkpt>
      <trkpt lat="45.69804" lon="4.64481">
        <ele>501.4</ele>
      </trkpt>
      <trkpt lat="45.69803" lon="4.64488">
        <ele>501.8</ele>
      </trkpt>
      <trkpt lat="45.69802" lon="4.64494">
        <ele>502</ele>
      </trkpt>
      <trkpt lat="45.69789" lon="4.64515">
        <ele>502</ele>
      </trkpt>
      <trkpt lat="45.6974" lon="4.64577">
        <ele>502.7</ele>
      </trkpt>
      <trkpt lat="45.69733" lon="4.64593">
        <ele>504.1</ele>
      </trkpt>
      <trkpt lat="45.69703" lon="4.64663">
        <ele>510.4</ele>
      </trkpt>
      <trkpt lat="45.69699" lon="4.64672">
        <ele>510.9</ele>
      </trkpt>
      <trkpt lat="45.69691" lon="4.64729">
        <ele>513.5</ele>
      </trkpt>
      <trkpt lat="45.6969" lon="4.64782">
        <ele>513.4</ele>
      </trkpt>
      <trkpt lat="45.69692" lon="4.64822">
        <ele>513.6</ele>
      </trkpt>
      <trkpt lat="45.69693" lon="4.64837">
        <ele>513.6</ele>
      </trkpt>
      <trkpt lat="45.69698" lon="4.64869">
        <ele>513.4</ele>
      </trkpt>
      <trkpt lat="45.69701" lon="4.64879">
        <ele>513.5</ele>
      </trkpt>
      <trkpt lat="45.69703" lon="4.64886">
        <ele>513.6</ele>
        <extensions>
          <visugpx:TrkExtension xmlns:visugpx="https://www.visugpx.com/editgpx/">
            <visugpx:node>8</visugpx:node>
            </visugpx:TrkExtension>
        </extensions>
      </trkpt>
      <trkpt lat="45.69735" lon="4.65145">
        <ele>509.9</ele>
        <extensions>
          <visugpx:TrkExtension xmlns:visugpx="https://www.visugpx.com/editgpx/">
            <visugpx:node>9</visugpx:node>
            </visugpx:TrkExtension>
        </extensions>
      </trkpt>
      <trkpt lat="45.69716" lon="4.65193">
        <ele>505.2</ele>
      </trkpt>
      <trkpt lat="45.6971" lon="4.65211">
        <ele>502.6</ele>
      </trkpt>
      <trkpt lat="45.69706" lon="4.65221">
        <ele>501.2</ele>
      </trkpt>
      <trkpt lat="45.69708" lon="4.65233">
        <ele>499.6</ele>
      </trkpt>
      <trkpt lat="45.69728" lon="4.65266">
        <ele>495.5</ele>
      </trkpt>
      <trkpt lat="45.69732" lon="4.65286">
        <ele>492.6</ele>
      </trkpt>
      <trkpt lat="45.69742" lon="4.65302">
        <ele>490.4</ele>
      </trkpt>
      <trkpt lat="45.69755" lon="4.65313">
        <ele>489</ele>
      </trkpt>
      <trkpt lat="45.69755" lon="4.65314">
        <ele>488.9</ele>
      </trkpt>
      <trkpt lat="45.69756" lon="4.65323">
        <ele>487.9</ele>
      </trkpt>
      <trkpt lat="45.69755" lon="4.65329">
        <ele>487.3</ele>
      </trkpt>
      <trkpt lat="45.69753" lon="4.65341">
        <ele>486.1</ele>
      </trkpt>
      <trkpt lat="45.69752" lon="4.6536">
        <ele>484.1</ele>
      </trkpt>
      <trkpt lat="45.69753" lon="4.65367">
        <ele>483.4</ele>
      </trkpt>
      <trkpt lat="45.69758" lon="4.65412">
        <ele>478</ele>
      </trkpt>
      <trkpt lat="45.6976" lon="4.65417">
        <ele>477.3</ele>
      </trkpt>
      <trkpt lat="45.6977" lon="4.65458">
        <ele>471.8</ele>
      </trkpt>
      <trkpt lat="45.69783" lon="4.6549">
        <ele>467.4</ele>
      </trkpt>
      <trkpt lat="45.69789" lon="4.6551">
        <ele>464.9</ele>
      </trkpt>
      <trkpt lat="45.6979" lon="4.65514">
        <ele>464.5</ele>
      </trkpt>
      <trkpt lat="45.69794" lon="4.65527">
        <ele>463.1</ele>
      </trkpt>
      <trkpt lat="45.69796" lon="4.65538">
        <ele>462.3</ele>
      </trkpt>
      <trkpt lat="45.69805" lon="4.65578">
        <ele>457.8</ele>
      </trkpt>
      <trkpt lat="45.69807" lon="4.656">
        <ele>455.1</ele>
      </trkpt>
      <trkpt lat="45.69809" lon="4.65622">
        <ele>452.7</ele>
      </trkpt>
      <trkpt lat="45.69815" lon="4.65635">
        <ele>450.8</ele>
      </trkpt>
      <trkpt lat="45.69828" lon="4.65648">
        <ele>448.3</ele>
      </trkpt>
      <trkpt lat="45.69852" lon="4.65672">
        <ele>444.2</ele>
      </trkpt>
      <trkpt lat="45.69862" lon="4.65675">
        <ele>443.4</ele>
      </trkpt>
      <trkpt lat="45.69872" lon="4.65674">
        <ele>443.1</ele>
        <extensions>
          <visugpx:TrkExtension xmlns:visugpx="https://www.visugpx.com/editgpx/">
            <visugpx:node>10</visugpx:node>
            </visugpx:TrkExtension>
        </extensions>
      </trkpt>
      <trkpt lat="45.69878" lon="4.65673">
        <ele>442.9</ele>
      </trkpt>
      <trkpt lat="45.69888" lon="4.65676">
        <ele>442.4</ele>
      </trkpt>
      <trkpt lat="45.69887" lon="4.65701">
        <ele>440.4</ele>
      </trkpt>
      <trkpt lat="45.69885" lon="4.65729">
        <ele>437.7</ele>
      </trkpt>
      <trkpt lat="45.69884" lon="4.65793">
        <ele>433.1</ele>
      </trkpt>
      <trkpt lat="45.69887" lon="4.65813">
        <ele>431.5</ele>
      </trkpt>
      <trkpt lat="45.69887" lon="4.65844">
        <ele>429.2</ele>
      </trkpt>
      <trkpt lat="45.69881" lon="4.65903">
        <ele>426.2</ele>
      </trkpt>
      <trkpt lat="45.69879" lon="4.65915">
        <ele>425.7</ele>
      </trkpt>
      <trkpt lat="45.69878" lon="4.6592">
        <ele>425.4</ele>
      </trkpt>
      <trkpt lat="45.69877" lon="4.65947">
        <ele>424.1</ele>
      </trkpt>
      <trkpt lat="45.69866" lon="4.66037">
        <ele>419.1</ele>
      </trkpt>
      <trkpt lat="45.69857" lon="4.66081">
        <ele>416.6</ele>
      </trkpt>
      <trkpt lat="45.6985" lon="4.66132">
        <ele>413.1</ele>
      </trkpt>
      <trkpt lat="45.6985" lon="4.66157">
        <ele>411.1</ele>
      </trkpt>
      <trkpt lat="45.69848" lon="4.66209">
        <ele>408</ele>
      </trkpt>
      <trkpt lat="45.69847" lon="4.66215">
        <ele>407.5</ele>
      </trkpt>
      <trkpt lat="45.69849" lon="4.66227">
        <ele>407</ele>
      </trkpt>
      <trkpt lat="45.69851" lon="4.66233">
        <ele>406.9</ele>
      </trkpt>
      <trkpt lat="45.69858" lon="4.66255">
        <ele>406.6</ele>
      </trkpt>
      <trkpt lat="45.69879" lon="4.66313">
        <ele>405.3</ele>
      </trkpt>
      <trkpt lat="45.69888" lon="4.66339">
        <ele>404</ele>
      </trkpt>
      <trkpt lat="45.69908" lon="4.66405">
        <ele>402.7</ele>
      </trkpt>
      <trkpt lat="45.69927" lon="4.66493">
        <ele>400.1</ele>
      </trkpt>
      <trkpt lat="45.6993" lon="4.66507">
        <ele>399.2</ele>
      </trkpt>
      <trkpt lat="45.69948" lon="4.66588">
        <ele>394.6</ele>
      </trkpt>
      <trkpt lat="45.69977" lon="4.66724">
        <ele>389.8</ele>
      </trkpt>
      <trkpt lat="45.69996" lon="4.66808">
        <ele>387.1</ele>
      </trkpt>
      <trkpt lat="45.70007" lon="4.66879">
        <ele>383.6</ele>
      </trkpt>
      <trkpt lat="45.70022" lon="4.66905">
        <ele>382.4</ele>
        <extensions>
          <visugpx:TrkExtension xmlns:visugpx="https://www.visugpx.com/editgpx/">
            <visugpx:node>11</visugpx:node>
            </visugpx:TrkExtension>
        </extensions>
      </trkpt>
      <trkpt lat="45.70007" lon="4.66879">
        <ele>383.6</ele>
      </trkpt>
      <trkpt lat="45.70023" lon="4.66849">
        <ele>384.6</ele>
      </trkpt>
      <trkpt lat="45.70047" lon="4.66805">
        <ele>385.3</ele>
      </trkpt>
      <trkpt lat="45.70072" lon="4.6675">
        <ele>384.8</ele>
      </trkpt>
      <trkpt lat="45.7008" lon="4.6673">
        <ele>384.2</ele>
      </trkpt>
      <trkpt lat="45.70091" lon="4.66695">
        <ele>381.6</ele>
      </trkpt>
      <trkpt lat="45.70097" lon="4.66653">
        <ele>377.5</ele>
      </trkpt>
      <trkpt lat="45.70101" lon="4.66637">
        <ele>377.1</ele>
      </trkpt>
      <trkpt lat="45.70104" lon="4.66629">
        <ele>377</ele>
      </trkpt>
      <trkpt lat="45.70108" lon="4.66625">
        <ele>376.4</ele>
      </trkpt>
      <trkpt lat="45.70112" lon="4.66623">
        <ele>376</ele>
      </trkpt>
      <trkpt lat="45.70124" lon="4.66623">
        <ele>376.3</ele>
      </trkpt>
      <trkpt lat="45.70144" lon="4.6663">
        <ele>376.9</ele>
      </trkpt>
      <trkpt lat="45.70151" lon="4.66629">
        <ele>377.8</ele>
      </trkpt>
      <trkpt lat="45.70159" lon="4.66629">
        <ele>378.8</ele>
      </trkpt>
      <trkpt lat="45.70168" lon="4.66632">
        <ele>379.4</ele>
      </trkpt>
      <trkpt lat="45.70182" lon="4.66628">
        <ele>378.7</ele>
      </trkpt>
      <trkpt lat="45.70192" lon="4.66621">
        <ele>378.5</ele>
      </trkpt>
      <trkpt lat="45.702" lon="4.66615">
        <ele>377.9</ele>
      </trkpt>
      <trkpt lat="45.70207" lon="4.66608">
        <ele>377.5</ele>
      </trkpt>
      <trkpt lat="45.70212" lon="4.66598">
        <ele>377.6</ele>
      </trkpt>
      <trkpt lat="45.70219" lon="4.66581">
        <ele>377.7</ele>
      </trkpt>
      <trkpt lat="45.70228" lon="4.66553">
        <ele>378.8</ele>
      </trkpt>
      <trkpt lat="45.70234" lon="4.66544">
        <ele>379</ele>
      </trkpt>
      <trkpt lat="45.7024" lon="4.66541">
        <ele>378.6</ele>
      </trkpt>
      <trkpt lat="45.7025" lon="4.66538">
        <ele>377.6</ele>
      </trkpt>
      <trkpt lat="45.70271" lon="4.6653">
        <ele>382.5</ele>
      </trkpt>
      <trkpt lat="45.70324" lon="4.66503">
        <ele>393.1</ele>
      </trkpt>
      <trkpt lat="45.70331" lon="4.66499">
        <ele>394.6</ele>
      </trkpt>
      <trkpt lat="45.70339" lon="4.66493">
        <ele>396.1</ele>
      </trkpt>
      <trkpt lat="45.70361" lon="4.66474">
        <ele>399.9</ele>
      </trkpt>
      <trkpt lat="45.70378" lon="4.66455">
        <ele>402.1</ele>
      </trkpt>
      <trkpt lat="45.70403" lon="4.66427">
        <ele>405.3</ele>
      </trkpt>
      <trkpt lat="45.70423" lon="4.66404">
        <ele>407.4</ele>
      </trkpt>
      <trkpt lat="45.70437" lon="4.66377">
        <ele>409.3</ele>
      </trkpt>
      <trkpt lat="45.70465" lon="4.66339">
        <ele>410.7</ele>
        <extensions>
          <visugpx:TrkExtension xmlns:visugpx="https://www.visugpx.com/editgpx/">
            <visugpx:node>12</visugpx:node>
            </visugpx:TrkExtension>
        </extensions>
      </trkpt>
      <trkpt lat="45.7047" lon="4.66332">
        <ele>410.8</ele>
      </trkpt>
      <trkpt lat="45.70489" lon="4.66311">
        <ele>412.1</ele>
      </trkpt>
      <trkpt lat="45.70515" lon="4.66288">
        <ele>413.5</ele>
      </trkpt>
      <trkpt lat="45.70524" lon="4.66288">
        <ele>413.9</ele>
      </trkpt>
      <trkpt lat="45.70531" lon="4.66284">
        <ele>414.2</ele>
      </trkpt>
      <trkpt lat="45.70541" lon="4.66272">
        <ele>415</ele>
      </trkpt>
      <trkpt lat="45.70543" lon="4.6627">
        <ele>415.1</ele>
        <extensions>
          <visugpx:TrkExtension xmlns:visugpx="https://www.visugpx.com/editgpx/">
            <visugpx:node>13</visugpx:node>
            </visugpx:TrkExtension>
        </extensions>
      </trkpt>
    </trkseg>
  </trk>
</gpx>